Download Report Download Report to Microsoft Excel
Kennebec River at North Sidney
 Total Drainage Area: 5,403 sq. miles 
 Drainage Area Controlled by Corps Dams: 0 sq. miles (0%) 
 Warning Flow/Stage: 57,600 cfs / 17.0 feet 
 Flood Flow/Stage: 104,551 cfs / 25.0 feet 
Date Time
(Eastern)
Stage
(ft)
Flow
(cfs)
CSM
(cfs / sq. mi.)
29 May 2024 04:15 PM 8.72 13,693 2.5
29 May 2024 04:00 PM 8.69 13,550 2.5
29 May 2024 03:45 PM 8.68 13,501 2.5
29 May 2024 03:30 PM 8.67 13,451 2.5
29 May 2024 03:15 PM 8.67 13,451 2.5
29 May 2024 03:00 PM 8.67 13,451 2.5
29 May 2024 02:45 PM 8.65 13,353 2.5
29 May 2024 02:30 PM 8.65 13,353 2.5
29 May 2024 02:15 PM 8.65 13,353 2.5
29 May 2024 02:00 PM 8.65 13,353 2.5
29 May 2024 01:45 PM 8.66 13,402 2.5
29 May 2024 01:30 PM 8.67 13,451 2.5
29 May 2024 01:15 PM 8.69 13,550 2.5
29 May 2024 01:00 PM 8.70 13,600 2.5
29 May 2024 12:45 PM 8.72 13,693 2.5
29 May 2024 12:30 PM 8.73 13,740 2.5
29 May 2024 12:15 PM 8.74 13,786 2.6
29 May 2024 12:00 PM 8.76 13,880 2.6
29 May 2024 11:45 AM 8.79 14,021 2.6
29 May 2024 11:30 AM 8.81 14,115 2.6
29 May 2024 11:15 AM 8.87 14,400 2.7
29 May 2024 11:00 AM 8.92 14,639 2.7
29 May 2024 10:45 AM 8.99 14,977 2.8
29 May 2024 10:30 AM 9.06 15,319 2.8
29 May 2024 10:15 AM 9.14 15,713 2.9
29 May 2024 10:00 AM 9.24 16,212 3.0
29 May 2024 09:45 AM 9.32 16,616 3.1
29 May 2024 09:30 AM 9.40 17,025 3.2
29 May 2024 09:15 AM 9.47 17,386 3.2
29 May 2024 09:00 AM 9.53 17,699 3.3
29 May 2024 08:45 AM 9.56 17,856 3.3
29 May 2024 08:30 AM 9.58 17,961 3.3
29 May 2024 08:15 AM 9.62 18,172 3.4
29 May 2024 08:00 AM 9.64 18,278 3.4
29 May 2024 07:45 AM 9.67 18,437 3.4
29 May 2024 07:30 AM 9.70 18,597 3.4
29 May 2024 07:15 AM 9.72 18,694 3.5
29 May 2024 07:00 AM 9.74 18,791 3.5
29 May 2024 06:45 AM 9.76 18,887 3.5
29 May 2024 06:30 AM 9.75 18,839 3.5
29 May 2024 06:15 AM 9.77 18,936 3.5
29 May 2024 06:00 AM 9.78 18,985 3.5
29 May 2024 05:45 AM 9.78 18,985 3.5
29 May 2024 05:30 AM 9.80 19,082 3.5
29 May 2024 05:15 AM 9.80 19,082 3.5
29 May 2024 05:00 AM 9.80 19,082 3.5
29 May 2024 04:45 AM 9.80 19,082 3.5
29 May 2024 04:30 AM 9.81 19,131 3.5
29 May 2024 04:15 AM 9.81 19,131 3.5
29 May 2024 04:00 AM 9.81 19,131 3.5
29 May 2024 03:45 AM 9.83 19,228 3.6
29 May 2024 03:30 AM 9.84 19,277 3.6
29 May 2024 03:15 AM 9.87 19,424 3.6
29 May 2024 03:00 AM 9.90 19,572 3.6
29 May 2024 02:45 AM 9.92 19,671 3.6
29 May 2024 02:30 AM 9.94 19,769 3.7
29 May 2024 02:15 AM 9.96 19,869 3.7
29 May 2024 02:00 AM 10.00 20,067 3.7
29 May 2024 01:45 AM 10.01 20,117 3.7
29 May 2024 01:30 AM 10.03 20,217 3.7
29 May 2024 01:15 AM 10.05 20,317 3.8
29 May 2024 01:00 AM 10.05 20,317 3.8
29 May 2024 12:45 AM 10.05 20,317 3.8
29 May 2024 12:30 AM 10.04 20,267 3.8
29 May 2024 12:15 AM 10.01 20,117 3.7
29 May 2024 12:00 AM 9.99 20,018 3.7
28 May 2024 11:45 PM 9.98 19,968 3.7
28 May 2024 11:30 PM 9.97 19,918 3.7
28 May 2024 11:15 PM 9.96 19,869 3.7
28 May 2024 11:00 PM 9.96 19,869 3.7
28 May 2024 10:45 PM 9.96 19,869 3.7
28 May 2024 10:30 PM 9.96 19,869 3.7
28 May 2024 10:15 PM 9.95 19,819 3.7
28 May 2024 10:00 PM 9.96 19,869 3.7
28 May 2024 09:45 PM 9.95 19,819 3.7
28 May 2024 09:30 PM 9.95 19,819 3.7
28 May 2024 09:15 PM 9.94 19,769 3.7
28 May 2024 09:00 PM 9.93 19,720 3.7
28 May 2024 08:45 PM 9.91 19,621 3.6
28 May 2024 08:30 PM 9.91 19,621 3.6
28 May 2024 08:15 PM 9.89 19,523 3.6
28 May 2024 08:00 PM 9.88 19,473 3.6
28 May 2024 07:45 PM 9.86 19,375 3.6
28 May 2024 07:30 PM 9.84 19,277 3.6
28 May 2024 07:15 PM 9.82 19,179 3.6
28 May 2024 07:00 PM 9.80 19,082 3.5
28 May 2024 06:45 PM 9.77 18,936 3.5
28 May 2024 06:30 PM 9.73 18,742 3.5
28 May 2024 06:15 PM 9.70 18,597 3.4
28 May 2024 06:00 PM 9.68 18,491 3.4
28 May 2024 05:45 PM 9.66 18,384 3.4
28 May 2024 05:30 PM 9.66 18,384 3.4
28 May 2024 05:15 PM 9.65 18,331 3.4
28 May 2024 05:00 PM 9.65 18,331 3.4
28 May 2024 04:45 PM 9.67 18,437 3.4
28 May 2024 04:30 PM 9.68 18,491 3.4
28 May 2024 04:15 PM 9.69 18,544 3.4
28 May 2024 04:00 PM 9.70 18,597 3.4
28 May 2024 03:45 PM 9.70 18,597 3.4
28 May 2024 03:30 PM 9.71 18,646 3.5
28 May 2024 03:15 PM 9.71 18,646 3.5
28 May 2024 03:00 PM 9.70 18,597 3.4
28 May 2024 02:45 PM 9.69 18,544 3.4
28 May 2024 02:30 PM 9.65 18,331 3.4
28 May 2024 02:15 PM 9.60 18,066 3.3
28 May 2024 02:00 PM 9.52 17,647 3.3
28 May 2024 01:45 PM 9.41 17,077 3.2
28 May 2024 01:30 PM 9.27 16,363 3.0
28 May 2024 01:15 PM 9.09 15,466 2.9
28 May 2024 01:00 PM 8.86 14,353 2.7
28 May 2024 12:45 PM 8.61 13,157 2.4
28 May 2024 12:30 PM 8.34 11,869 2.2
28 May 2024 12:15 PM 8.07 10,646 2.0
28 May 2024 12:00 PM 7.84 9,654 1.8
28 May 2024 11:45 AM 7.67 8,951 1.7
28 May 2024 11:30 AM 7.53 8,392 1.6
28 May 2024 11:15 AM 7.43 8,003 1.5
28 May 2024 11:00 AM 7.38 7,812 1.5
28 May 2024 10:45 AM 7.34 7,660 1.4
28 May 2024 10:30 AM 7.33 7,623 1.4
28 May 2024 10:15 AM 7.30 7,511 1.4
28 May 2024 10:00 AM 7.28 7,436 1.4
28 May 2024 09:45 AM 7.25 7,325 1.4
28 May 2024 09:30 AM 7.21 7,179 1.3
28 May 2024 09:15 AM 7.16 6,997 1.3
28 May 2024 09:00 AM 7.11 6,818 1.3
28 May 2024 08:45 AM 7.07 6,677 1.2
28 May 2024 08:30 AM 7.05 6,606 1.2
28 May 2024 08:15 AM 7.03 6,536 1.2
28 May 2024 08:00 AM 7.02 6,502 1.2
28 May 2024 07:45 AM 7.01 6,467 1.2
28 May 2024 07:30 AM 7.00 6,432 1.2
28 May 2024 07:15 AM 6.99 6,398 1.2
28 May 2024 07:00 AM 6.97 6,329 1.2
28 May 2024 06:45 AM 6.96 6,294 1.2
28 May 2024 06:30 AM 6.95 6,260 1.2
28 May 2024 06:15 AM 6.94 6,226 1.2
28 May 2024 06:00 AM 6.93 6,192 1.2
28 May 2024 05:45 AM 6.92 6,158 1.1
28 May 2024 05:30 AM 6.91 6,124 1.1
28 May 2024 05:15 AM 6.90 6,091 1.1
28 May 2024 05:00 AM 6.88 6,023 1.1
28 May 2024 04:45 AM 6.87 5,990 1.1
28 May 2024 04:30 AM 6.85 5,923 1.1
28 May 2024 04:15 AM 6.84 5,890 1.1
28 May 2024 04:00 AM 6.83 5,857 1.1
28 May 2024 03:45 AM 6.82 5,824 1.1
28 May 2024 03:30 AM 6.81 5,791 1.1
28 May 2024 03:15 AM 6.79 5,725 1.1
28 May 2024 03:00 AM 6.78 5,693 1.1
28 May 2024 02:45 AM 6.77 5,660 1.1
28 May 2024 02:30 AM 6.76 5,627 1.0
28 May 2024 02:15 AM 6.76 5,627 1.0
28 May 2024 02:00 AM 6.74 5,563 1.0
28 May 2024 01:45 AM 6.73 5,531 1.0
28 May 2024 01:30 AM 6.73 5,531 1.0
28 May 2024 01:15 AM 6.72 5,498 1.0
28 May 2024 01:00 AM 6.72 5,498 1.0
28 May 2024 12:45 AM 6.72 5,498 1.0
28 May 2024 12:30 AM 6.72 5,498 1.0
28 May 2024 12:15 AM 6.72 5,498 1.0
28 May 2024 12:00 AM 6.71 5,466 1.0
27 May 2024 11:45 PM 6.71 5,466 1.0
27 May 2024 11:30 PM 6.70 5,434 1.0
27 May 2024 11:15 PM 6.70 5,434 1.0
27 May 2024 11:00 PM 6.69 5,403 1.0
27 May 2024 10:45 PM 6.68 5,371 1.0
27 May 2024 10:30 PM 6.68 5,371 1.0
27 May 2024 10:15 PM 6.66 5,308 1.0
27 May 2024 10:00 PM 6.66 5,308 1.0
27 May 2024 09:45 PM 6.64 5,245 1.0
27 May 2024 09:30 PM 6.65 5,276 1.0
27 May 2024 09:15 PM 6.65 5,276 1.0
27 May 2024 09:00 PM 6.66 5,308 1.0
Report Generated May 29, 2024 04:46 pm